Time;durP1;ratioP1;P1;durP2;ratioP2;P2;SDS_P1;SDS_P2;PMS_P1;PMS_P2;Temp;Humidity;BMP_temperature;BMP_pressure;BME280_temperature;BME280_humidity;BME280_pressure;Samples;Min_cycle;Max_cycle;Signal;HPM_P1;HPM_P2
2023/06/07 06:03:57;;;;;;;5.15;1.08;;;17.70;75.90;;;;;;6243680;22;20020;-67
2023/06/07 06:06:24;;;;;;;3.30;1.30;;;17.70;76.20;;;;;;6245675;23;20026;-67
2023/06/07 06:08:52;;;;;;;3.75;1.20;;;17.70;76.40;;;;;;6257726;22;20027;-66
2023/06/07 06:11:19;;;;;;;7.82;1.33;;;17.70;76.50;;;;;;6276603;22;20006;-67
2023/06/07 06:13:48;;;;;;;2.78;1.20;;;17.70;77.00;;;;;;6276358;22;20034;-67
2023/06/07 06:16:15;;;;;;;6.55;1.20;;;17.70;77.20;;;;;;6276642;22;20010;-67
2023/06/07 06:18:43;;;;;;;3.58;1.02;;;17.70;77.40;;;;;;6276105;22;20442;-67
2023/06/07 06:21:10;;;;;;;4.10;1.40;;;17.60;77.60;;;;;;6276914;22;20365;-67
2023/06/07 06:23:38;;;;;;;3.97;1.38;;;17.60;77.50;;;;;;6249573;22;20004;-67
2023/06/07 06:26:06;;;;;;;2.92;1.05;;;17.60;77.90;;;;;;6276637;22;20065;-67
2023/06/07 06:28:33;;;;;;;2.28;1.20;;;17.60;77.80;;;;;;6249558;22;20011;-67
2023/06/07 06:31:01;;;;;;;4.72;1.55;;;17.50;77.90;;;;;;6276551;22;20000;-67
2023/06/07 06:33:28;;;;;;;3.05;1.15;;;17.60;78.10;;;;;;6273687;22;20069;-66
2023/06/07 06:35:56;;;;;;;5.25;1.40;;;17.50;78.40;;;;;;6267247;22;20027;-66
2023/06/07 06:38:23;;;;;;;6.03;1.40;;;17.50;78.60;;;;;;6271906;22;20004;-66
2023/06/07 06:40:51;;;;;;;1.73;1.10;;;17.50;79.00;;;;;;6272135;22;20014;-66
2023/06/07 06:43:18;;;;;;;3.17;1.10;;;17.50;79.30;;;;;;6272184;22;20086;-65
2023/06/07 06:45:46;;;;;;;7.60;1.38;;;17.50;79.40;;;;;;6271767;22;20000;-66
2023/06/07 06:48:14;;;;;;;6.03;1.30;;;17.50;79.60;;;;;;6271246;22;20384;-64
2023/06/07 06:50:41;;;;;;;6.15;1.40;;;17.50;79.70;;;;;;6271766;22;20101;-65
2023/06/07 06:53:09;;;;;;;7.90;1.40;;;17.50;79.90;;;;;;6242652;22;20046;-66
2023/06/07 06:55:36;;;;;;;3.05;1.17;;;17.40;80.00;;;;;;6271986;22;20000;-66
2023/06/07 06:58:03;;;;;;;3.42;1.27;;;17.50;80.30;;;;;;6271987;22;20010;-64
2023/06/07 07:00:35;;;;;;;2.70;1.20;;;17.40;80.30;;;;;;6271743;22;20011;-66
2023/06/07 07:03:03;;;;;;;2.83;1.27;;;17.40;80.30;;;;;;6244933;22;20019;-66
2023/06/07 07:05:30;;;;;;;5.10;1.50;;;17.40;80.40;;;;;;6242798;22;20019;-66
2023/06/07 07:07:58;;;;;;;4.85;1.45;;;17.40;80.60;;;;;;6271533;22;20027;-66
2023/06/07 07:10:25;;;;;;;6.45;1.80;;;17.40;80.70;;;;;;6244155;22;20008;-65
2023/06/07 07:12:53;;;;;;;3.70;1.40;;;17.30;81.00;;;;;;6272430;22;20062;-65
2023/06/07 07:15:20;;;;;;;3.05;1.52;;;17.30;81.10;;;;;;6244575;22;20336;-65
2023/06/07 07:17:48;;;;;;;3.15;1.42;;;17.30;81.20;;;;;;6268211;22;20114;-65
2023/06/07 07:20:17;;;;;;;5.35;1.80;;;17.30;81.30;;;;;;6244525;22;20066;-65
2023/06/07 07:22:45;;;;;;;4.97;1.35;;;17.30;81.40;;;;;;6244247;22;20011;-66
2023/06/07 07:25:13;;;;;;;7.18;1.65;;;17.30;81.50;;;;;;6271055;22;20011;-64
2023/06/07 07:27:41;;;;;;;4.07;1.50;;;17.30;81.60;;;;;;6271601;22;20085;-65
2023/06/07 07:30:09;;;;;;;2.47;1.15;;;17.30;81.70;;;;;;6270598;22;20100;-66
2023/06/07 07:32:37;;;;;;;4.15;1.35;;;17.20;81.70;;;;;;6244071;22;20012;-67
2023/06/07 07:35:04;;;;;;;6.32;1.50;;;17.20;81.90;;;;;;6266456;22;20028;-66
2023/06/07 07:37:32;;;;;;;4.00;1.23;;;17.20;82.00;;;;;;6244061;22;20007;-65
2023/06/07 07:39:59;;;;;;;6.80;1.83;;;17.20;82.00;;;;;;6270662;22;20327;-64
2023/06/07 07:42:27;;;;;;;5.15;1.50;;;17.20;82.10;;;;;;6243315;22;20039;-65
2023/06/07 07:44:54;;;;;;;5.40;1.70;;;17.20;82.20;;;;;;6270836;22;20078;-65
2023/06/07 07:47:22;;;;;;;5.28;1.58;;;17.20;82.20;;;;;;6269365;22;20038;-65
2023/06/07 07:49:49;;;;;;;3.92;1.40;;;17.20;82.30;;;;;;6244077;22;20000;-66
2023/06/07 07:52:16;;;;;;;4.20;1.65;;;17.20;82.30;;;;;;6268240;22;19996;-65
2023/06/07 07:54:44;;;;;;;5.10;1.80;;;17.20;82.40;;;;;;6271185;22;20561;-67
2023/06/07 07:57:11;;;;;;;7.40;1.70;;;17.20;82.40;;;;;;6271356;22;20015;-65
2023/06/07 07:59:39;;;;;;;4.93;1.40;;;17.20;82.40;;;;;;6269681;22;20062;-65
2023/06/07 08:02:07;;;;;;;4.30;1.70;;;17.10;82.50;;;;;;6270786;22;20354;-67
2023/06/07 08:04:34;;;;;;;5.13;1.58;;;17.10;82.50;;;;;;6271569;22;20015;-67
2023/06/07 08:07:01;;;;;;;3.30;1.67;;;17.10;82.50;;;;;;6271367;22;20441;-65
2023/06/07 08:09:29;;;;;;;4.22;1.90;;;17.10;82.50;;;;;;6271826;22;20032;-68
2023/06/07 08:11:56;;;;;;;6.47;2.10;;;17.10;82.50;;;;;;6270815;22;20127;-68
2023/06/07 08:14:24;;;;;;;3.85;1.58;;;17.10;82.60;;;;;;6272058;22;20004;-68
2023/06/07 08:16:51;;;;;;;8.77;2.13;;;17.10;82.60;;;;;;6244635;22;20035;-68
2023/06/07 08:19:19;;;;;;;5.38;2.10;;;17.10;82.60;;;;;;6272760;22;20391;-65
2023/06/07 08:21:47;;;;;;;5.93;1.60;;;17.10;82.60;;;;;;6271316;22;20016;-68
2023/06/07 08:24:15;;;;;;;5.05;1.63;;;17.10;82.70;;;;;;6272483;22;20011;-65
2023/06/07 08:26:45;;;;;;;5.97;1.60;;;17.10;82.60;;;;;;6271761;22;20004;-65
2023/06/07 08:29:12;;;;;;;;;;;17.10;82.80;;;;;;6271677;22;20012;-65
2023/06/07 08:31:43;;;;;;;4.30;1.52;;;17.00;82.80;;;;;;6270104;22;19903;-66
2023/06/07 08:34:11;;;;;;;3.33;1.42;;;17.00;82.80;;;;;;6271750;22;20499;-65
2023/06/07 08:36:42;;;;;;;5.97;1.63;;;17.00;82.80;;;;;;6245181;22;20007;-66
2023/06/07 08:39:09;;;;;;;4.97;1.55;;;17.00;82.80;;;;;;6271290;22;20027;-67
2023/06/07 08:41:39;;;;;;;6.53;1.65;;;17.00;82.80;;;;;;6271684;22;20043;-65
2023/06/07 08:44:06;;;;;;;4.97;1.73;;;17.00;82.70;;;;;;6220311;22;20007;-65
2023/06/07 08:46:33;;;;;;;4.28;1.58;;;16.90;82.60;;;;;;6271597;22;20014;-66
2023/06/07 08:49:01;;;;;;;4.57;1.70;;;16.90;82.60;;;;;;6242897;22;20030;-65
2023/06/07 08:51:29;;;;;;;2.78;1.52;;;16.90;82.50;;;;;;6242790;22;20068;-65
2023/06/07 08:54:02;;;;;;;4.53;1.60;;;17.00;82.50;;;;;;6267319;22;20423;-64
2023/06/07 08:56:31;;;;;;;7.78;1.63;;;16.90;82.60;;;;;;6241917;22;20438;-65
2023/06/07 08:58:59;;;;;;;4.73;1.73;;;16.90;82.50;;;;;;6268148;22;20004;-65
2023/06/07 09:01:29;;;;;;;4.30;1.63;;;16.90;82.50;;;;;;6268610;22;20482;-66
2023/06/07 09:03:57;;;;;;;5.45;1.80;;;16.90;82.40;;;;;;6271577;22;19996;-64
2023/06/07 09:06:24;;;;;;;7.30;2.08;;;16.90;82.50;;;;;;6245391;22;20018;-64
2023/06/07 09:08:52;;;;;;;8.27;1.80;;;16.90;82.30;;;;;;6195339;22;20011;-66
2023/06/07 09:11:19;;;;;;;8.93;1.80;;;16.80;82.30;;;;;;6270722;22;20003;-65
2023/06/07 09:13:47;;;;;;;4.88;1.83;;;16.90;82.20;;;;;;6271937;22;20008;-65
2023/06/07 09:16:15;;;;;;;7.90;2.03;;;16.90;82.30;;;;;;6244493;22;20458;-66
2023/06/07 09:18:47;;;;;;;6.05;1.73;;;16.90;82.20;;;;;;6273082;22;20000;-65
2023/06/07 09:21:28;;;;;;;5.18;1.60;;;16.80;82.20;;;;;;6273287;22;20127;-66
2023/06/07 09:23:59;;;;;;;5.43;1.70;;;16.90;82.20;;;;;;6274311;22;20011;-68
2023/06/07 09:26:37;;;;;;;4.78;1.67;;;16.90;82.20;;;;;;6273199;22;20455;-67
2023/06/07 09:29:11;;;;;;;16.48;2.55;;;16.90;82.20;;;;;;6246719;22;20069;-67
2023/06/07 09:31:39;;;;;;;7.22;1.95;;;16.80;82.20;;;;;;6272848;22;20073;-67
2023/06/07 09:34:23;;;;;;;4.97;1.55;;;16.90;82.20;;;;;;6271980;22;20342;-67
2023/06/07 09:36:54;;;;;;;8.55;1.95;;;16.90;82.30;;;;;;6273802;22;20012;-68
2023/06/07 09:39:23;;;;;;;5.10;1.52;;;16.80;82.20;;;;;;6272998;22;20030;-67
2023/06/07 09:41:55;;;;;;;4.45;1.50;;;16.90;82.30;;;;;;6272840;22;20015;-66
2023/06/07 09:44:28;;;;;;;4.07;1.77;;;16.90;82.30;;;;;;6272852;22;20457;-65
2023/06/07 09:46:56;;;;;;;4.10;1.90;;;16.90;82.30;;;;;;6273104;22;20039;-65
2023/06/07 09:49:28;;;;;;;7.85;2.40;;;16.90;82.30;;;;;;6272099;22;20141;-65
2023/06/07 09:51:56;;;;;;;7.10;2.25;;;16.90;82.40;;;;;;6243839;22;20008;-64
2023/06/07 09:54:40;;;;;;;4.72;2.10;;;16.90;82.50;;;;;;6245826;22;20015;-65
2023/06/07 09:57:08;;;;;;;5.25;2.00;;;16.80;82.50;;;;;;6273861;22;20042;-66
2023/06/07 09:59:39;;;;;;;4.30;1.73;;;16.80;82.60;;;;;;6273099;22;20369;-66
2023/06/07 10:02:33;;;;;;;7.05;1.90;;;16.80;82.60;;;;;;6273273;22;20050;-65
2023/06/07 10:05:00;;;;;;;5.85;1.77;;;16.80;82.70;;;;;;6267879;22;20434;-65
2023/06/07 10:07:32;;;;;;;6.15;1.80;;;16.80;82.80;;;;;;6272600;22;20018;-65
2023/06/07 10:09:59;;;;;;;6.65;2.15;;;16.80;82.80;;;;;;6245830;22;20004;-67
2023/06/07 10:12:31;;;;;;;6.68;2.00;;;16.80;82.90;;;;;;6246765;22;20052;-65
2023/06/07 10:15:06;;;;;;;5.32;2.17;;;16.80;83.00;;;;;;6245422;22;20038;-65
2023/06/07 10:17:50;;;;;;;6.95;2.33;;;16.80;83.00;;;;;;6246709;22;20007;-65
2023/06/07 10:20:41;;;;;;;4.10;1.98;;;16.80;83.10;;;;;;6273469;22;20028;-65
2023/06/07 10:23:13;;;;;;;5.57;2.00;;;16.70;83.10;;;;;;6222862;22;20076;-64
2023/06/07 10:26:09;;;;;;;9.48;2.13;;;16.80;83.30;;;;;;6272803;22;20010;-65
2023/06/07 10:28:41;;;;;;;4.03;1.50;;;16.70;83.40;;;;;;6267728;22;20047;-64
2023/06/07 10:31:11;;;;;;;5.28;1.80;;;16.70;83.40;;;;;;6273141;22;20015;-66
2023/06/07 10:33:38;;;;;;;3.22;1.80;;;16.70;83.40;;;;;;6272398;22;20008;-66
2023/06/07 10:36:08;;;;;;;4.28;1.70;;;16.70;83.40;;;;;;6214979;23;20398;-68
2023/06/07 10:38:35;;;;;;;6.50;1.60;;;16.70;83.50;;;;;;6241690;23;20011;-65
2023/06/07 10:41:04;;;;;;;4.30;1.80;;;16.70;83.50;;;;;;6242154;23;20273;-66
2023/06/07 10:43:32;;;;;;;6.63;1.90;;;16.70;83.60;;;;;;6215485;23;20035;-66
2023/06/07 10:46:23;;;;;;;7.60;1.75;;;16.70;83.70;;;;;;6214892;23;20008;-66
2023/06/07 10:48:54;;;;;;;6.38;1.90;;;16.60;83.80;;;;;;6241223;23;20004;-66
2023/06/07 10:51:58;;;;;;;7.47;1.73;;;16.60;83.90;;;;;;6214980;23;20443;-66
2023/06/07 10:54:30;;;;;;;4.65;1.70;;;16.60;83.90;;;;;;6157137;23;20016;-66
2023/06/07 10:56:59;;;;;;;7.25;2.25;;;16.60;84.00;;;;;;6242765;23;20004;-67
2023/06/07 10:59:27;;;;;;;5.97;2.20;;;16.70;84.00;;;;;;6215713;23;20006;-67
2023/06/07 11:01:57;;;;;;;5.93;1.88;;;16.70;84.10;;;;;;6242052;23;20434;-68
2023/06/07 11:04:35;;;;;;;3.20;1.60;;;16.60;84.00;;;;;;6240575;23;20004;-68
2023/06/07 11:07:23;;;;;;;4.22;1.70;;;16.60;84.10;;;;;;6242447;23;20043;-67
2023/06/07 11:10:15;;;;;;;6.95;2.30;;;16.60;84.10;;;;;;6241611;23;20062;-67
2023/06/07 11:13:03;;;;;;;8.27;2.70;;;16.50;84.10;;;;;;6241099;23;20012;-67
2023/06/07 11:15:35;;;;;;;8.77;2.80;;;16.50;84.20;;;;;;6241106;23;20012;-70
2023/06/07 11:18:07;;;;;;;10.10;2.40;;;16.50;84.20;;;;;;6213707;23;20351;-67
2023/06/07 11:20:38;;;;;;;6.25;2.20;;;16.50;84.30;;;;;;6241437;23;20350;-68
2023/06/07 11:23:30;;;;;;;8.30;2.50;;;16.50;84.30;;;;;;6241797;23;20015;-68
2023/06/07 11:26:01;;;;;;;9.68;2.42;;;16.50;84.40;;;;;;6241771;23;20122;-68
2023/06/07 11:28:29;;;;;;;7.50;2.70;;;16.40;84.50;;;;;;6241841;23;20008;-68
2023/06/07 11:30:57;;;;;;;6.40;2.10;;;16.40;84.40;;;;;;6241725;23;20004;-67
2023/06/07 11:33:25;;;;;;;6.50;2.38;;;16.50;84.50;;;;;;6215102;23;20007;-68
2023/06/07 11:35:52;;;;;;;4.78;2.03;;;16.50;84.40;;;;;;6261567;22;20405;-67
2023/06/07 11:38:21;;;;;;;5.65;2.00;;;16.50;84.40;;;;;;6275117;22;20012;-66
2023/06/07 11:40:49;;;;;;;8.48;2.10;;;16.50;84.40;;;;;;6247851;22;20062;-67
2023/06/07 11:43:27;;;;;;;7.00;1.70;;;16.50;84.50;;;;;;6274073;22;19999;-67
2023/06/07 11:45:58;;;;;;;8.00;1.80;;;16.50;84.40;;;;;;6223694;22;20031;-67
2023/06/07 11:48:29;;;;;;;5.95;1.60;;;16.50;84.40;;;;;;6245122;22;20074;-67
2023/06/07 11:50:57;;;;;;;3.92;1.63;;;16.50;84.40;;;;;;6245247;22;20004;-66
2023/06/07 11:53:28;;;;;;;4.57;1.50;;;16.50;84.40;;;;;;6271379;22;20007;-67
2023/06/07 11:55:56;;;;;;;6.93;2.03;;;16.50;84.30;;;;;;6271674;22;20015;-67
2023/06/07 11:58:24;;;;;;;7.03;1.77;;;16.60;84.20;;;;;;6246391;22;20027;-67
2023/06/07 12:00:52;;;;;;;6.47;1.52;;;16.60;84.20;;;;;;6245374;22;20011;-67
2023/06/07 12:03:22;;;;;;;6.10;1.88;;;16.60;84.20;;;;;;6243077;22;20435;-67
2023/06/07 12:05:50;;;;;;;;;;;16.60;84.10;;;;;;6272460;22;20010;-67
2023/06/07 12:08:18;;;;;;;4.93;1.60;;;16.60;84.10;;;;;;6271645;22;19903;-68
2023/06/07 12:10:52;;;;;;;6.07;1.63;;;16.60;84.10;;;;;;6220344;22;20030;-68
2023/06/07 12:13:21;;;;;;;4.00;1.60;;;16.60;84.00;;;;;;6271943;22;20061;-66
2023/06/07 12:15:49;;;;;;;5.05;1.60;;;16.60;84.00;;;;;;6271978;22;20011;-67
2023/06/07 12:18:18;;;;;;;6.45;1.70;;;16.60;84.00;;;;;;6272128;22;20004;-67
2023/06/07 12:20:47;;;;;;;9.60;1.50;;;16.60;83.80;;;;;;6270871;22;20042;-67
2023/06/07 12:23:15;;;;;;;5.18;1.50;;;16.60;83.80;;;;;;6272169;22;20033;-66
2023/06/07 12:25:43;;;;;;;6.85;1.90;;;16.60;83.80;;;;;;6274578;22;20003;-67
2023/06/07 12:28:14;;;;;;;5.93;2.03;;;16.60;83.70;;;;;;6274362;22;20099;-67
2023/06/07 12:30:43;;;;;;;4.85;1.50;;;16.60;83.80;;;;;;6273945;22;20002;-67
2023/06/07 12:33:15;;;;;;;8.07;1.80;;;16.60;83.70;;;;;;6246137;22;20050;-67
2023/06/07 12:35:47;;;;;;;6.90;1.70;;;16.50;83.70;;;;;;6274778;22;20024;-67
2023/06/07 12:38:15;;;;;;;4.93;1.30;;;16.60;83.80;;;;;;6274832;22;20006;-67
2023/06/07 12:40:42;;;;;;;4.15;1.60;;;16.50;83.70;;;;;;6221857;22;20307;-67
2023/06/07 12:43:10;;;;;;;4.53;1.50;;;16.50;83.60;;;;;;6275341;22;20008;-67
2023/06/07 12:45:37;;;;;;;5.35;1.42;;;16.60;83.70;;;;;;6274057;22;20073;-67
2023/06/07 12:48:05;;;;;;;4.00;1.45;;;16.50;83.70;;;;;;6275280;22;20011;-67
2023/06/07 12:50:33;;;;;;;5.88;1.60;;;16.50;83.70;;;;;;6274689;22;19999;-67
2023/06/07 12:53:00;;;;;;;6.50;1.60;;;16.50;83.70;;;;;;6276207;22;20012;-67
2023/06/07 12:55:27;;;;;;;5.53;1.60;;;16.50;83.60;;;;;;6277149;22;20438;-67
2023/06/07 12:57:55;;;;;;;5.25;1.30;;;16.60;83.80;;;;;;6276482;22;20000;-67
2023/06/07 13:00:23;;;;;;;6.47;1.80;;;16.50;83.80;;;;;;6250144;22;20000;-67
2023/06/07 13:02:50;;;;;;;9.45;1.70;;;16.50;83.70;;;;;;6277418;22;20018;-67
2023/06/07 13:05:18;;;;;;;4.80;1.48;;;16.50;83.70;;;;;;6275723;22;20130;-67
2023/06/07 13:07:45;;;;;;;4.88;1.55;;;16.50;83.70;;;;;;6276977;22;20130;-67
2023/06/07 13:10:13;;;;;;;5.28;1.48;;;16.50;83.80;;;;;;6277213;22;20004;-67
2023/06/07 13:12:40;;;;;;;7.03;1.83;;;16.50;83.80;;;;;;6277801;22;20122;-67
2023/06/07 18:12:00;;;;;;;;;;;14.30;87.50;;;;;;6273918;22;20142;-67
2023/06/07 18:14:28;;;;;;;4.38;1.48;;;14.30;87.60;;;;;;6274889;22;19907;-67
2023/06/07 18:16:57;;;;;;;3.13;1.55;;;14.20;87.60;;;;;;6277150;22;20078;-67
2023/06/07 18:19:25;;;;;;;3.42;1.60;;;14.20;87.70;;;;;;6276883;22;20006;-67
2023/06/07 18:21:54;;;;;;;3.45;1.80;;;14.20;87.70;;;;;;6276899;22;20445;-67
2023/06/07 18:24:21;;;;;;;7.28;1.75;;;14.20;87.80;;;;;;6276351;22;20429;-67
2023/06/07 18:26:49;;;;;;;6.57;2.00;;;14.20;87.90;;;;;;6249945;22;20031;-67
2023/06/07 18:29:17;;;;;;;2.63;1.90;;;14.30;88.00;;;;;;6249987;22;20027;-67
2023/06/07 18:31:44;;;;;;;8.63;2.58;;;14.30;87.90;;;;;;6224521;22;20012;-67
2023/06/07 18:34:16;;;;;;;7.18;2.28;;;14.30;87.80;;;;;;6274738;22;20396;-67
2023/06/07 18:36:43;;;;;;;6.70;2.65;;;14.30;87.70;;;;;;6275891;22;20004;-67
2023/06/07 18:39:11;;;;;;;6.45;2.28;;;14.30;87.70;;;;;;6275506;22;20010;-67
2023/06/07 18:41:38;;;;;;;4.85;2.03;;;14.30;87.70;;;;;;6275675;22;20030;-67
2023/06/07 18:44:06;;;;;;;5.10;2.17;;;14.20;87.80;;;;;;6275534;22;20011;-68
2023/06/07 18:46:34;;;;;;;7.45;1.85;;;14.20;87.80;;;;;;6274282;22;20091;-67
2023/06/07 18:49:01;;;;;;;3.45;1.63;;;14.20;88.00;;;;;;6275767;22;20334;-67
2023/06/07 18:51:28;;;;;;;5.30;1.65;;;14.30;88.10;;;;;;6247921;22;20019;-67
2023/06/07 18:53:56;;;;;;;3.00;1.73;;;14.20;88.10;;;;;;6276184;22;19999;-67
2023/06/07 18:56:24;;;;;;;4.20;1.70;;;14.20;88.10;;;;;;6275989;22;20026;-67
2023/06/07 18:58:52;;;;;;;2.85;1.52;;;14.30;88.10;;;;;;6276035;22;20027;-67
2023/06/07 19:01:19;;;;;;;5.93;1.40;;;14.20;88.10;;;;;;6275138;22;20347;-67
2023/06/07 19:03:46;;;;;;;4.97;1.50;;;14.20;88.10;;;;;;6275620;22;19995;-68
2023/06/07 19:06:15;;;;;;;4.72;1.42;;;14.20;88.10;;;;;;6276273;22;20086;-67
2023/06/07 19:08:43;;;;;;;7.35;1.45;;;14.30;88.10;;;;;;6275548;22;20327;-67
2023/06/07 21:13:11;;;;;;;3.58;2.03;;;13.90;88.60;;;;;;6266977;22;19926;-65
2023/06/07 21:15:38;;;;;;;4.30;2.15;;;13.90;88.70;;;;;;6275199;22;20012;-66
2023/06/07 21:18:06;;;;;;;4.82;2.42;;;13.80;88.70;;;;;;6249954;22;20048;-68
2023/06/07 21:20:33;;;;;;;5.38;2.80;;;13.70;88.70;;;;;;6275747;22;20112;-65
2023/06/07 21:23:01;;;;;;;6.25;3.00;;;13.70;88.70;;;;;;6275532;22;20015;-65
2023/06/07 21:25:28;;;;;;;14.32;4.15;;;13.70;88.80;;;;;;6276605;22;20004;-65
2023/06/07 21:27:56;;;;;;;8.05;3.95;;;13.70;88.60;;;;;;6277016;22;20004;-67
2023/06/07 21:30:23;;;;;;;9.18;3.50;;;13.70;88.60;;;;;;6276920;22;20322;-68
2023/06/07 21:32:51;;;;;;;12.50;4.35;;;13.70;88.60;;;;;;6277001;22;20067;-68
2023/06/07 21:35:18;;;;;;;11.98;4.35;;;13.70;88.50;;;;;;6276787;22;20024;-68
2023/06/07 21:37:45;;;;;;;9.35;4.72;;;13.70;88.60;;;;;;6276838;22;20392;-68
2023/06/07 21:40:13;;;;;;;11.63;4.78;;;13.70;88.50;;;;;;6276693;22;19999;-68
2023/06/07 21:42:40;;;;;;;12.45;5.45;;;13.70;88.50;;;;;;6276589;22;20449;-67
2023/06/07 21:45:08;;;;;;;9.30;4.88;;;13.70;88.50;;;;;;6277573;22;20011;-68
2023/06/07 21:47:36;;;;;;;10.57;4.80;;;13.70;88.50;;;;;;6248626;22;20371;-65
2023/06/07 21:50:03;;;;;;;10.27;5.10;;;13.70;88.70;;;;;;6275211;22;20003;-67
2023/06/07 21:52:31;;;;;;;10.10;5.30;;;13.70;88.70;;;;;;6249718;22;20419;-68
2023/06/07 21:54:59;;;;;;;10.60;5.00;;;13.70;88.90;;;;;;6249381;22;20091;-68
2023/06/07 21:57:26;;;;;;;12.38;5.28;;;13.80;89.10;;;;;;6276786;22;20011;-67
2023/06/07 21:59:55;;;;;;;13.95;4.88;;;13.80;89.10;;;;;;6274431;22;20342;-67
2023/06/07 22:02:22;;;;;;;12.35;4.93;;;13.90;89.00;;;;;;6275297;22;20335;-67
2023/06/07 22:04:50;;;;;;;11.43;5.00;;;14.00;89.20;;;;;;6275947;22;20075;-67
2023/06/07 22:07:17;;;;;;;9.23;4.28;;;14.00;89.10;;;;;;6276852;22;20008;-67
2023/06/07 22:09:46;;;;;;;12.63;4.25;;;14.00;89.00;;;;;;6276893;22;19999;-67
2023/06/07 22:12:14;;;;;;;9.52;4.57;;;14.10;89.10;;;;;;6250636;22;20473;-67
2023/06/07 22:14:43;;;;;;;13.23;4.40;;;14.20;89.10;;;;;;6250021;22;20011;-67
2023/06/07 22:17:10;;;;;;;12.13;5.20;;;14.20;89.00;;;;;;6250176;22;20003;-66
2023/06/07 22:19:37;;;;;;;14.00;4.40;;;14.20;89.10;;;;;;6249789;22;20380;-66
2023/06/07 22:22:05;;;;;;;9.05;4.30;;;14.30;89.10;;;;;;6276355;22;20057;-66
2023/06/07 22:24:33;;;;;;;11.50;3.83;;;14.30;88.90;;;;;;6276510;22;20115;-66
2023/06/07 22:27:00;;;;;;;7.22;3.85;;;14.30;88.90;;;;;;6276853;22;19996;-66
2023/06/07 22:29:27;;;;;;;6.68;3.80;;;14.40;89.00;;;;;;6276797;22;20419;-68
2023/06/07 22:31:58;;;;;;;9.27;3.92;;;14.50;89.00;;;;;;6276005;22;20020;-67
2023/06/07 22:34:28;;;;;;;10.05;3.75;;;14.50;88.90;;;;;;6276127;22;19999;-66
2023/06/07 22:36:56;;;;;;;8.45;3.30;;;14.50;89.00;;;;;;6276754;22;20057;-66
2023/06/07 22:39:24;;;;;;;6.68;3.00;;;14.60;89.10;;;;;;6276394;22;20012;-66
2023/06/07 22:41:51;;;;;;;10.63;3.05;;;14.70;89.00;;;;;;6276724;22;20016;-68
2023/06/07 22:44:19;;;;;;;4.60;2.47;;;14.70;89.00;;;;;;6276654;22;20000;-66
2023/06/07 22:46:46;;;;;;;5.95;2.50;;;14.70;89.00;;;;;;6276778;22;20004;-66
2023/06/07 22:49:16;;;;;;;7.60;2.25;;;14.80;88.90;;;;;;6276263;22;20393;-66
2023/06/07 22:51:44;;;;;;;3.95;2.00;;;14.80;88.70;;;;;;6276271;22;20434;-67
2023/06/07 22:54:11;;;;;;;4.18;1.85;;;14.90;88.80;;;;;;6276219;22;20007;-66
2023/06/07 22:56:38;;;;;;;2.60;1.60;;;15.00;88.60;;;;;;6276445;22;20003;-66
2023/06/07 22:59:06;;;;;;;5.07;2.00;;;15.00;88.60;;;;;;6276197;22;20373;-66
2023/06/07 23:01:34;;;;;;;4.90;2.10;;;15.10;88.40;;;;;;6276424;22;20035;-66
2023/06/07 23:04:02;;;;;;;5.20;2.05;;;15.20;88.40;;;;;;6276823;22;20014;-66
2023/06/07 23:06:37;;;;;;;5.22;1.90;;;15.20;88.50;;;;;;6276560;22;20034;-66
2023/06/07 23:09:05;;;;;;;4.28;1.70;;;15.20;88.10;;;;;;6275701;22;20090;-66
2023/06/07 23:11:33;;;;;;;3.35;1.70;;;15.20;87.90;;;;;;6275901;22;20019;-66
2023/06/07 23:14:02;;;;;;;5.65;1.80;;;15.30;87.80;;;;;;6276214;22;20486;-66
2023/06/07 23:16:29;;;;;;;5.22;2.00;;;15.30;87.90;;;;;;6249765;22;20466;-66
2023/06/07 23:19:01;;;;;;;6.93;2.17;;;15.30;87.60;;;;;;6275924;22;20066;-66
2023/06/07 23:21:30;;;;;;;4.47;1.90;;;15.40;87.70;;;;;;6275889;22;20053;-66
2023/06/07 23:23:57;;;;;;;5.28;1.88;;;15.40;87.70;;;;;;6275885;22;20027;-66
2023/06/07 23:26:25;;;;;;;3.78;1.70;;;15.50;87.30;;;;;;6249290;22;20431;-66
2023/06/07 23:28:52;;;;;;;3.65;1.70;;;15.50;87.10;;;;;;6275862;22;20494;-67
2023/06/07 23:31:20;;;;;;;3.30;2.00;;;15.50;87.20;;;;;;6276395;22;20007;-67
2023/06/07 23:33:47;;;;;;;7.60;1.75;;;15.50;86.90;;;;;;6276759;22;20007;-66
2023/06/07 23:36:15;;;;;;;2.35;1.58;;;15.60;87.00;;;;;;6275533;22;20015;-66
2023/06/07 23:38:44;;;;;;;7.20;1.60;;;15.70;86.80;;;;;;6248744;22;20004;-66
2023/06/07 23:41:12;;;;;;;3.78;1.80;;;15.70;86.60;;;;;;6276224;22;20011;-66
2023/06/07 23:43:39;;;;;;;5.55;1.50;;;15.70;86.50;;;;;;6275973;22;20004;-66
2023/06/07 23:46:06;;;;;;;3.22;1.27;;;15.70;86.30;;;;;;6275796;22;20027;-66
2023/06/07 23:48:38;;;;;;;1.67;1.23;;;15.70;86.20;;;;;;6275508;22;20039;-66
2023/06/07 23:51:06;;;;;;;4.10;1.55;;;15.70;86.00;;;;;;6275480;22;20434;-66
2023/06/07 23:53:33;;;;;;;4.78;1.63;;;15.80;85.80;;;;;;6275255;22;20058;-66
2023/06/07 23:56:01;;;;;;;2.83;1.30;;;15.80;85.80;;;;;;6275435;22;20028;-66
2023/06/07 23:58:28;;;;;;;3.08;1.30;;;15.80;85.70;;;;;;6275637;22;20036;-68
